createdAt,value
2022-12-01T00:01:12.693Z,115.35
2022-12-01T00:03:41.812Z,120.53
2022-12-01T00:06:16.872Z,125.10
2022-12-01T00:09:03.618Z,121.20
2022-12-01T00:11:30.085Z,114.20
2022-12-01T00:13:56.495Z,107.82
2022-12-01T00:16:22.987Z,110.88
2022-12-01T00:18:51.682Z,117.32
2022-12-01T00:21:19.954Z,119.03
2022-12-01T00:23:47.840Z,115.75
2022-12-01T00:26:15.599Z,116.68
2022-12-01T00:28:42.456Z,120.15
2022-12-01T00:31:12.718Z,107.05
2022-12-01T00:33:40.057Z,107.23
2022-12-01T00:36:07.443Z,107.90
2022-12-01T00:38:34.731Z,107.75
2022-12-01T00:41:02.765Z,109.30
2022-12-01T00:43:29.513Z,108.47
2022-12-01T00:45:57.901Z,101.20
2022-12-01T00:48:24.434Z,102.68
2022-12-01T00:50:54.984Z,96.80
2022-12-01T00:53:21.779Z,104.47
2022-12-01T00:55:48.347Z,101.43
2022-12-01T00:58:14.928Z,98.87
2022-12-01T01:00:42.993Z,96.63
2022-12-01T01:03:10.618Z,98.22
2022-12-01T01:05:42.823Z,101.40
2022-12-01T01:08:11.848Z,102.40
2022-12-01T01:10:43.650Z,99.37
2022-12-01T01:13:11.439Z,96.18
2022-12-01T01:15:38.446Z,99.53
2022-12-01T01:18:05.730Z,98.30
2022-12-01T01:20:32.998Z,106.88
2022-12-01T01:22:59.448Z,101.87
2022-12-01T01:25:26.144Z,98.28
2022-12-01T01:27:52.630Z,96.70
2022-12-01T01:30:19.273Z,98.55
2022-12-01T01:32:45.713Z,102.57
2022-12-01T01:35:12.243Z,105.17
2022-12-01T01:37:38.654Z,92.18
2022-12-01T01:40:05.928Z,107.93
2022-12-01T01:42:32.329Z,101.38
2022-12-01T01:44:59.263Z,98.20
2022-12-01T01:47:30.744Z,103.43
2022-12-01T01:50:05.223Z,100.03
2022-12-01T01:52:33.524Z,94.07
2022-12-01T01:55:00.733Z,104.45
2022-12-01T01:57:30.743Z,103.28
2022-12-01T02:00:23.484Z,100.70
2022-12-01T02:02:50.555Z,101.35
2022-12-01T02:05:26.787Z,105.47
2022-12-01T02:07:56.592Z,104.28
2022-12-01T02:10:41.767Z,111.22
2022-12-01T02:13:55.718Z,104.17
2022-12-01T02:16:41.143Z,112.40
2022-12-01T02:19:32.368Z,105.82
2022-12-01T02:22:30.246Z,100.10
2022-12-01T02:25:19.390Z,111.88
2022-12-01T02:28:30.336Z,106.03
2022-12-01T02:31:02.987Z,101.78
2022-12-01T02:33:49.502Z,99.68
2022-12-01T02:36:35.002Z,103.28
2022-12-01T02:39:10.813Z,103.25
2022-12-01T02:41:45.304Z,101.43
2022-12-01T02:44:20.173Z,97.68
2022-12-01T02:47:00.642Z,100.22
2022-12-01T02:49:33.541Z,101.35
2022-12-01T02:52:00.816Z,103.10
2022-12-01T02:54:31.095Z,101.93
2022-12-01T02:56:57.511Z,101.93
2022-12-01T02:59:23.961Z,106.03
2022-12-01T03:02:03.979Z,107.35
2022-12-01T03:04:36.012Z,108.15
2022-12-01T03:07:05.508Z,102.30
2022-12-01T03:09:37.991Z,107.82
2022-12-01T03:12:23.671Z,100.47
2022-12-01T03:15:04.508Z,107.63
2022-12-01T03:17:43.522Z,103.22
2022-12-01T03:20:19.498Z,103.50
2022-12-01T03:22:55.955Z,103.43
2022-12-01T03:25:26.313Z,105.80
2022-12-01T03:28:20.346Z,106.80
2022-12-01T03:30:45.260Z,104.78
2022-12-01T03:33:21.012Z,103.27
2022-12-01T03:36:03.203Z,103.47
2022-12-01T03:38:31.872Z,107.93
2022-12-01T03:41:03.872Z,106.05
2022-12-01T03:43:36.760Z,114.43
2022-12-01T03:46:10.743Z,103.50
2022-12-01T03:48:39.112Z,105.70
2022-12-01T03:51:14.605Z,103.57
2022-12-01T03:53:55.141Z,118.90
2022-12-01T03:56:26.147Z,98.05
2022-12-01T03:58:56.737Z,107.30
2022-12-01T04:01:23.521Z,110.20
2022-12-01T04:03:49.939Z,109.55
2022-12-01T04:06:16.364Z,119.40
2022-12-01T04:08:42.863Z,115.15
2022-12-01T04:11:32.447Z,105.83
2022-12-01T04:13:59.334Z,113.47
2022-12-01T04:16:25.785Z,108.72
2022-12-01T04:18:52.221Z,112.38
2022-12-01T04:21:18.649Z,111.18
2022-12-01T04:24:00.239Z,110.50
2022-12-01T04:26:32.806Z,111.05
2022-12-01T04:29:00.679Z,106.03
2022-12-01T04:31:27.516Z,112.35
2022-12-01T04:33:55.889Z,109.97
2022-12-01T04:36:23.290Z,117.23
2022-12-01T04:38:49.880Z,114.05
2022-12-01T04:41:16.372Z,121.30
2022-12-01T04:43:42.858Z,116.68
2022-12-01T04:46:09.611Z,130.20
2022-12-01T04:48:37.302Z,116.37
2022-12-01T04:51:05.519Z,115.00
2022-12-01T04:53:32.318Z,125.53
2022-12-01T04:56:02.318Z,112.30
2022-12-01T04:58:30.051Z,114.25
2022-12-01T05:01:05.071Z,114.40
2022-12-01T05:03:31.564Z,119.90
2022-12-01T05:06:06.139Z,118.55
2022-12-01T05:08:33.000Z,118.70
2022-12-01T05:10:59.627Z,108.88
2022-12-01T05:13:26.387Z,114.53
2022-12-01T05:15:53.244Z,121.10
2022-12-01T05:18:19.736Z,115.95
2022-12-01T05:20:58.438Z,122.40
2022-12-01T05:23:32.953Z,119.78
2022-12-01T05:25:59.798Z,121.77
2022-12-01T05:28:26.844Z,118.68
2022-12-01T05:30:54.432Z,124.00
2022-12-01T05:33:22.215Z,123.25
2022-12-01T05:35:49.922Z,122.97
2022-12-01T05:38:16.430Z,121.23
2022-12-01T05:40:43.135Z,121.68
2022-12-01T05:43:09.513Z,127.53
2022-12-01T05:45:35.972Z,123.78
2022-12-01T05:48:02.828Z,117.90
2022-12-01T05:50:30.395Z,119.73
2022-12-01T05:52:56.929Z,125.18
2022-12-01T05:55:23.687Z,111.47
2022-12-01T05:57:50.197Z,123.13
2022-12-01T06:00:17.171Z,112.55
2022-12-01T06:02:43.734Z,110.17
2022-12-01T06:05:10.567Z,116.88
2022-12-01T06:07:40.021Z,113.80
2022-12-01T06:10:09.159Z,111.32
2022-12-01T06:12:36.244Z,113.00
2022-12-01T06:15:06.671Z,115.53
2022-12-01T06:17:37.076Z,117.13
2022-12-01T06:20:07.219Z,102.20
2022-12-01T06:22:33.649Z,108.20
2022-12-01T06:25:00.107Z,115.03
2022-12-01T06:27:26.515Z,111.87
2022-12-01T06:29:53.304Z,106.90
2022-12-01T06:32:19.991Z,118.38
2022-12-01T06:34:46.434Z,113.30
2022-12-01T06:37:15.516Z,123.10
2022-12-01T06:39:42.995Z,123.20
2022-12-01T06:42:09.510Z,119.32
2022-12-01T06:44:35.937Z,121.40
2022-12-01T06:47:02.329Z,110.65
2022-12-01T06:49:28.730Z,125.53
2022-12-01T06:51:55.204Z,120.90
2022-12-01T06:54:21.767Z,114.80
2022-12-01T06:56:48.199Z,114.78
2022-12-01T06:59:14.830Z,126.43
2022-12-01T07:01:41.743Z,120.95
2022-12-01T07:04:08.255Z,116.33
2022-12-01T07:06:34.673Z,125.38
2022-12-01T07:09:01.059Z,110.93
2022-12-01T07:11:27.481Z,108.40
2022-12-01T07:13:56.951Z,115.10
2022-12-01T07:16:23.518Z,108.00
2022-12-01T07:18:50.128Z,105.20
2022-12-01T07:21:17.066Z,104.93
2022-12-01T07:23:43.485Z,100.82
2022-12-01T07:26:12.905Z,110.00
2022-12-01T07:28:39.336Z,104.87
2022-12-01T07:31:11.879Z,105.03
2022-12-01T07:33:38.758Z,104.50
2022-12-01T07:36:06.044Z,119.05
2022-12-01T07:38:34.543Z,109.10
2022-12-01T07:41:08.258Z,104.47
2022-12-01T07:43:35.381Z,102.82
2022-12-01T07:46:08.943Z,102.90
2022-12-01T07:48:39.957Z,97.30
2022-12-01T07:51:11.669Z,98.25
2022-12-01T07:53:38.292Z,92.33
2022-12-01T07:56:08.595Z,101.97
2022-12-01T07:58:35.945Z,92.32
2022-12-01T08:01:14.727Z,99.80
2022-12-01T08:03:42.430Z,97.78
2022-12-01T08:06:09.744Z,98.67
2022-12-01T08:08:38.354Z,97.90
2022-12-01T08:11:08.307Z,97.22
2022-12-01T08:13:34.792Z,99.75
2022-12-01T08:16:06.140Z,87.78
2022-12-01T08:18:36.563Z,89.33
2022-12-01T08:21:03.762Z,99.85
2022-12-01T08:23:30.585Z,93.03
2022-12-01T08:26:02.099Z,98.30
2022-12-01T08:28:28.680Z,93.90
2022-12-01T08:30:55.726Z,103.93
2022-12-01T08:33:22.353Z,96.78
2022-12-01T08:35:48.777Z,100.93
2022-12-01T08:38:15.834Z,97.00
2022-12-01T08:40:42.256Z,89.35
2022-12-01T08:43:12.331Z,87.93
2022-12-01T08:45:45.171Z,99.07
2022-12-01T08:48:11.568Z,98.10
2022-12-01T08:50:37.966Z,97.70
2022-12-01T08:53:04.512Z,87.75
2022-12-01T08:55:30.898Z,95.67
2022-12-01T08:57:57.470Z,91.18
2022-12-01T09:00:23.880Z,93.88
2022-12-01T09:02:50.339Z,100.32
2022-12-01T09:05:16.907Z,92.47
2022-12-01T09:07:45.555Z,86.33
2022-12-01T09:10:12.092Z,94.78
2022-12-01T09:12:38.476Z,91.43
2022-12-01T09:15:05.384Z,92.90
2022-12-01T09:17:31.766Z,94.20
2022-12-01T09:19:58.169Z,98.00
2022-12-01T09:22:24.565Z,92.78
2022-12-01T09:24:50.989Z,100.50
2022-12-01T09:27:17.386Z,87.45
2022-12-01T09:29:43.812Z,93.18
2022-12-01T09:32:10.245Z,95.57
2022-12-01T09:34:36.644Z,90.25
2022-12-01T09:37:03.281Z,93.82
2022-12-01T09:39:29.861Z,87.78
2022-12-01T09:42:08.392Z,95.00
2022-12-01T09:44:45.443Z,102.03
2022-12-01T09:47:21.599Z,90.15
2022-12-01T09:50:03.104Z,82.78
2022-12-01T09:52:44.754Z,81.57
2022-12-01T09:55:19.483Z,81.22
2022-12-01T09:57:54.185Z,77.97
2022-12-01T10:00:23.776Z,82.18
2022-12-01T10:02:59.970Z,75.03
2022-12-01T10:05:33.260Z,83.88
2022-12-01T10:08:04.776Z,76.82
2022-12-01T10:10:36.373Z,73.97
2022-12-01T10:13:02.922Z,81.55
2022-12-01T10:15:39.375Z,79.63
2022-12-01T10:18:45.737Z,79.22
2022-12-01T10:21:41.586Z,79.65
2022-12-01T10:24:17.648Z,78.27
2022-12-01T10:27:08.756Z,84.53
2022-12-01T10:29:47.751Z,85.03
2022-12-01T10:32:38.567Z,78.22
2022-12-01T10:35:05.142Z,76.97
2022-12-01T10:37:31.800Z,86.93
2022-12-01T10:39:58.651Z,82.88
2022-12-01T10:42:34.193Z,79.10
2022-12-01T10:45:03.354Z,80.57
2022-12-01T10:47:31.416Z,84.72
2022-12-01T10:49:58.523Z,75.23
2022-12-01T10:52:41.695Z,77.68
2022-12-01T10:55:23.225Z,74.25
2022-12-01T10:57:50.443Z,70.05
2022-12-01T11:03:22.037Z,64.60
2022-12-01T11:05:53.195Z,64.13
2022-12-01T11:08:30.176Z,59.35
2022-12-01T11:10:56.836Z,65.20
2022-12-01T11:13:32.740Z,64.40
2022-12-01T11:16:02.481Z,65.73
2022-12-01T11:18:33.611Z,66.43
2022-12-01T11:21:06.187Z,67.35
2022-12-01T11:23:35.920Z,67.00
2022-12-01T11:26:09.253Z,63.00
2022-12-01T11:28:40.376Z,60.07
2022-12-01T11:31:09.931Z,61.80
2022-12-01T11:33:51.277Z,65.55
2022-12-01T11:36:44.031Z,63.38
2022-12-01T11:39:23.877Z,58.53
2022-12-01T11:41:55.636Z,58.17
2022-12-01T11:44:43.586Z,56.22
2022-12-01T11:47:23.305Z,53.78
2022-12-01T11:50:02.394Z,48.33
2022-12-01T11:52:33.057Z,58.45
2022-12-01T11:55:20.894Z,53.57
2022-12-01T11:57:52.187Z,50.58
2022-12-01T12:00:28.016Z,53.15
2022-12-01T12:03:14.115Z,49.58
2022-12-01T12:06:32.369Z,53.83
2022-12-01T12:09:20.385Z,50.90
2022-12-01T12:11:57.625Z,53.38
2022-12-01T12:14:47.434Z,51.08
2022-12-01T12:17:58.493Z,48.65
2022-12-01T12:20:40.958Z,47.33
2022-12-01T12:23:27.455Z,51.30
2022-12-01T12:25:59.615Z,48.22
2022-12-01T12:28:37.717Z,51.35
2022-12-01T12:31:06.926Z,49.28
2022-12-01T12:34:00.559Z,50.47
2022-12-01T12:36:50.859Z,55.43
2022-12-01T12:39:42.432Z,52.83
2022-12-01T12:42:33.192Z,50.95
2022-12-01T12:45:16.126Z,48.95
2022-12-01T12:48:13.474Z,56.25
2022-12-01T12:51:15.772Z,50.50
2022-12-01T12:53:51.345Z,51.05
2022-12-01T12:56:21.950Z,58.67
2022-12-01T12:59:14.674Z,62.65
2022-12-01T13:01:47.028Z,61.38
2022-12-01T13:04:25.160Z,67.00
2022-12-01T13:07:00.517Z,65.07
2022-12-01T13:09:35.530Z,72.68
2022-12-01T13:12:09.090Z,69.57
2022-12-01T13:14:40.941Z,70.32
2022-12-01T13:17:20.197Z,76.20
2022-12-01T13:19:48.211Z,68.88
2022-12-01T13:22:17.909Z,74.05
2022-12-01T13:24:44.715Z,73.65
2022-12-01T13:27:11.042Z,71.90
2022-12-01T13:29:47.503Z,73.47
2022-12-01T13:32:31.587Z,75.18
2022-12-01T13:34:59.768Z,75.55
2022-12-01T13:37:29.631Z,79.68
2022-12-01T13:40:08.034Z,77.85
2022-12-01T13:42:35.265Z,81.43
2022-12-01T13:45:09.929Z,88.15
2022-12-01T13:47:55.815Z,91.18
2022-12-01T13:50:43.094Z,93.95
2022-12-01T13:53:20.293Z,90.35
2022-12-01T13:56:00.287Z,89.23
2022-12-01T13:58:32.929Z,90.43
2022-12-01T14:01:18.237Z,97.07
2022-12-01T14:04:03.623Z,92.05
2022-12-01T14:06:35.870Z,86.65
2022-12-01T14:09:14.626Z,89.03
2022-12-01T14:11:42.548Z,87.80
2022-12-01T14:14:08.884Z,90.07
2022-12-01T14:16:47.932Z,83.50
2022-12-01T14:19:39.324Z,89.38
2022-12-01T14:22:07.524Z,86.70
2022-12-01T14:24:41.428Z,90.53
2022-12-01T14:27:11.801Z,87.82
2022-12-01T14:29:43.038Z,84.05
2022-12-01T14:32:09.364Z,83.20
2022-12-01T14:34:39.431Z,86.70
2022-12-01T14:37:16.052Z,84.97
2022-12-01T14:40:13.016Z,84.97
2022-12-01T14:43:05.800Z,80.78
2022-12-01T14:45:47.262Z,82.40
2022-12-01T14:48:18.620Z,80.67
2022-12-01T14:51:07.897Z,83.88
2022-12-01T14:53:38.928Z,80.05
2022-12-01T14:56:13.159Z,81.47
2022-12-01T14:58:51.206Z,80.57
2022-12-01T15:01:17.961Z,79.37
2022-12-01T15:03:50.618Z,78.35
2022-12-01T15:06:25.327Z,79.18
2022-12-01T15:09:33.675Z,83.75
2022-12-01T15:12:03.887Z,78.80
2022-12-01T15:14:48.346Z,82.70
2022-12-01T15:17:34.593Z,79.95
2022-12-01T15:20:01.335Z,81.97
2022-12-01T15:22:31.477Z,85.38
2022-12-01T15:25:13.120Z,80.60
2022-12-01T15:27:39.692Z,84.93
2022-12-01T15:30:07.734Z,78.85
2022-12-01T15:32:38.012Z,82.90
2022-12-01T15:35:05.628Z,77.55
2022-12-01T15:37:42.571Z,80.47
2022-12-01T15:43:06.014Z,75.82
2022-12-01T15:45:45.898Z,81.65
2022-12-01T15:48:25.912Z,77.15
2022-12-01T15:51:12.216Z,80.25
2022-12-01T15:53:45.365Z,76.53
2022-12-01T15:56:12.432Z,83.82
2022-12-01T15:58:47.547Z,81.40
2022-12-01T16:01:19.619Z,77.85
2022-12-01T16:03:50.083Z,82.70
2022-12-01T16:06:17.837Z,82.03
2022-12-01T16:08:57.016Z,78.40
2022-12-01T16:11:23.842Z,81.93
2022-12-01T16:14:01.155Z,77.88
2022-12-01T16:16:34.499Z,80.72
2022-12-01T16:19:02.401Z,78.33
2022-12-01T16:21:32.950Z,83.88
2022-12-01T16:24:01.773Z,81.18
2022-12-01T16:26:29.444Z,81.70
2022-12-01T16:28:56.947Z,78.05
2022-12-01T16:31:26.081Z,77.23
2022-12-01T16:34:13.856Z,82.55
2022-12-01T16:36:45.143Z,86.65
2022-12-01T16:39:13.989Z,83.10
2022-12-01T16:41:44.590Z,77.53
2022-12-01T16:44:28.091Z,79.43
2022-12-01T16:46:55.234Z,82.53
2022-12-01T16:49:22.169Z,76.82
2022-12-01T16:51:57.145Z,79.30
2022-12-01T16:54:24.086Z,77.22
2022-12-01T16:56:50.973Z,78.87
2022-12-01T16:59:17.433Z,76.15
2022-12-01T17:01:43.916Z,75.70
2022-12-01T17:04:10.352Z,75.32
2022-12-01T17:06:38.390Z,82.05
2022-12-01T17:09:05.737Z,77.57
2022-12-01T17:11:32.596Z,77.75
2022-12-01T17:13:59.158Z,75.05
2022-12-01T17:16:25.642Z,74.60
2022-12-01T17:18:52.179Z,82.55
2022-12-01T17:21:18.683Z,83.40
2022-12-01T17:23:45.093Z,81.85
2022-12-01T17:26:14.683Z,78.88
2022-12-01T17:28:41.551Z,78.00
2022-12-01T17:31:08.597Z,80.03
2022-12-01T17:33:36.014Z,85.93
2022-12-01T17:36:05.283Z,84.93
2022-12-01T17:38:34.993Z,79.43
2022-12-01T17:41:04.203Z,81.97
2022-12-01T17:43:30.622Z,82.50
2022-12-01T17:45:57.122Z,77.43
2022-12-01T17:48:23.535Z,79.05
2022-12-01T17:50:50.123Z,87.45
2022-12-01T17:53:16.573Z,81.97
2022-12-01T17:55:42.959Z,78.75
2022-12-01T17:58:09.350Z,85.03
2022-12-01T18:00:35.818Z,74.70
2022-12-01T18:03:02.305Z,84.75
2022-12-01T18:05:29.491Z,83.07
2022-12-01T18:07:56.007Z,85.25
2022-12-01T18:10:22.440Z,84.60
2022-12-01T18:12:48.891Z,87.32
2022-12-01T18:15:17.176Z,80.18
2022-12-01T18:17:43.594Z,81.57
2022-12-01T18:20:10.301Z,83.47
2022-12-01T18:22:36.722Z,89.80
2022-12-01T18:25:03.622Z,84.38
2022-12-01T18:27:30.037Z,83.03
2022-12-01T18:29:56.529Z,81.35
2022-12-01T18:32:22.913Z,80.28
2022-12-01T18:34:49.593Z,78.37
2022-12-01T18:37:16.271Z,86.45
2022-12-01T18:39:42.689Z,82.10
2022-12-01T18:42:09.079Z,84.88
2022-12-01T18:44:35.481Z,79.30
2022-12-01T18:47:03.711Z,80.70
2022-12-01T18:49:30.231Z,69.72
2022-12-01T18:51:57.297Z,79.25
2022-12-01T18:54:23.686Z,83.68
2022-12-01T18:56:53.271Z,81.50
2022-12-01T18:59:19.748Z,74.03
2022-12-01T19:01:48.555Z,81.13
2022-12-01T19:04:16.494Z,75.72
2022-12-01T19:06:44.702Z,78.82
2022-12-01T19:09:12.963Z,78.03
2022-12-01T19:11:40.772Z,66.17
2022-12-01T19:14:10.129Z,65.88
2022-12-01T19:16:36.551Z,63.75
2022-12-01T19:19:03.196Z,65.63
2022-12-01T19:21:29.596Z,63.80
2022-12-01T19:23:56.250Z,65.90
2022-12-01T19:26:23.133Z,62.45
2022-12-01T19:28:49.832Z,59.75
2022-12-01T19:31:23.462Z,60.83
2022-12-01T19:33:50.579Z,58.58
2022-12-01T19:36:19.392Z,56.83
2022-12-01T19:38:45.951Z,59.85
2022-12-01T19:41:13.859Z,56.30
2022-12-01T19:43:40.514Z,59.50
2022-12-01T19:46:08.650Z,55.92
2022-12-01T19:48:35.416Z,56.13
2022-12-01T19:51:02.115Z,55.58
2022-12-01T19:53:33.258Z,56.95
2022-12-01T19:56:04.867Z,51.78
2022-12-01T19:58:34.613Z,56.63
2022-12-01T20:01:10.062Z,52.67
2022-12-01T20:03:38.087Z,55.03
2022-12-01T20:06:10.061Z,47.97
2022-12-01T20:08:36.806Z,48.78
2022-12-01T20:11:04.526Z,45.20
2022-12-01T20:13:32.931Z,46.60
2022-12-01T20:16:14.308Z,50.47
2022-12-01T20:18:42.037Z,42.63
2022-12-01T20:21:16.363Z,44.92
2022-12-01T20:23:44.516Z,45.78
2022-12-01T20:26:11.696Z,44.80
2022-12-01T20:28:39.704Z,40.88
2022-12-01T20:31:24.343Z,42.22
2022-12-01T20:33:52.514Z,46.13
2022-12-01T20:36:19.227Z,42.85
2022-12-01T20:38:45.739Z,43.30
2022-12-01T20:41:12.835Z,45.50
2022-12-01T20:43:39.944Z,44.33
2022-12-01T20:46:07.164Z,44.10
2022-12-01T20:48:34.009Z,44.20
2022-12-01T20:51:01.931Z,48.60
2022-12-01T20:53:28.382Z,48.20
2022-12-01T20:55:55.552Z,48.65
2022-12-01T20:58:22.133Z,46.67
2022-12-01T21:00:48.975Z,47.13
2022-12-01T21:03:15.388Z,48.30
2022-12-01T21:05:43.340Z,48.97
2022-12-01T21:08:12.129Z,49.60
2022-12-01T21:10:40.613Z,49.42
2022-12-01T21:13:39.068Z,45.10
2022-12-01T21:16:14.045Z,52.90
2022-12-01T21:18:52.666Z,46.45
2022-12-01T21:21:30.703Z,48.92
2022-12-01T21:24:20.600Z,47.67
2022-12-01T21:26:50.134Z,46.20
2022-12-01T21:29:21.247Z,48.10
2022-12-01T21:31:50.607Z,45.22
2022-12-01T21:34:25.132Z,46.22
2022-12-01T21:36:54.420Z,50.75
2022-12-01T21:39:23.008Z,44.42
2022-12-01T21:41:51.769Z,46.67
2022-12-01T21:44:20.234Z,47.58
2022-12-01T21:46:47.911Z,48.67
2022-12-01T21:49:30.773Z,48.13
2022-12-01T21:51:58.445Z,51.03
2022-12-01T21:54:24.855Z,46.37
2022-12-01T21:56:57.090Z,50.92
2022-12-01T21:59:24.471Z,49.45
2022-12-01T22:01:54.279Z,51.88
2022-12-01T22:04:28.791Z,49.63
2022-12-01T22:06:57.038Z,52.57
2022-12-01T22:09:26.429Z,52.97
2022-12-01T22:12:28.696Z,52.28
2022-12-01T22:15:02.067Z,48.17
2022-12-01T22:17:29.780Z,49.90
2022-12-01T22:19:59.800Z,52.77
2022-12-01T22:22:30.491Z,50.80
2022-12-01T22:25:01.796Z,50.80
2022-12-01T22:27:29.782Z,51.58
2022-12-01T22:30:05.331Z,45.08
2022-12-01T22:32:34.724Z,49.57
2022-12-01T22:35:23.649Z,49.65
2022-12-01T22:37:54.676Z,51.28
2022-12-01T22:40:38.062Z,51.80
2022-12-01T22:43:16.266Z,55.22
2022-12-01T22:46:17.899Z,55.97
2022-12-01T22:48:58.799Z,52.67
2022-12-01T22:51:26.725Z,49.70
2022-12-01T22:54:16.976Z,51.70
2022-12-01T22:56:46.459Z,57.55
2022-12-01T22:59:18.635Z,57.43
2022-12-01T23:01:48.141Z,54.20
2022-12-01T23:04:26.659Z,55.30
2022-12-01T23:06:58.283Z,54.67
2022-12-01T23:09:44.270Z,57.88
2022-12-01T23:12:10.625Z,52.00
2022-12-01T23:14:43.615Z,53.22
2022-12-01T23:17:24.349Z,54.40
2022-12-01T23:19:52.788Z,54.28
2022-12-01T23:22:19.969Z,58.00
2022-12-01T23:24:46.414Z,53.57
2022-12-01T23:27:16.076Z,63.08
2022-12-01T23:29:42.531Z,55.65
2022-12-01T23:32:10.543Z,53.22
2022-12-01T23:34:37.072Z,53.97
2022-12-01T23:37:03.479Z,55.40
2022-12-01T23:39:35.044Z,54.05
2022-12-01T23:42:02.618Z,53.35
2022-12-01T23:44:45.425Z,52.00
2022-12-01T23:47:24.815Z,47.35
2022-12-01T23:50:03.702Z,49.03
2022-12-01T23:52:34.098Z,55.67
2022-12-01T23:55:01.162Z,51.97
2022-12-01T23:57:27.878Z,52.05
